Estación Meteorológica Peña el Pijo (Robertgarden) [ 07/24/17 22:42:07 CEST ]

Fecha Hora Presion(HPa) Temp (°C) Humedad % Rocio (°C) Viento ( m/s) Direccion Lluvia 1Hora(mm) Lluvia 24H(mm) LLuvia Total(mm)
2017-Jun-24 01:01:49 1017.000 18.1 45 5.9         1427.60
2017-Jun-24 02:01:52 1016.700 18.2 42 5.0         1427.60
2017-Jun-24 03:01:36 1016.500 17.1 43 4.3         1427.60
2017-Jun-24 04:01:37 1016.200 15.7 48 4.7         1427.60
2017-Jun-24 05:01:34 1015.800 15.4 50 5.1         1427.60
2017-Jun-24 06:01:34 1015.800 14.2 56 5.5         1427.60
2017-Jun-24 07:01:58 1015.800 14.2 56 5.5         1427.60
2017-Jun-24 08:01:58 1016.200 17.6 52 7.6         1427.60
2017-Jun-24 09:01:35 1016.200 23.4 49 12.1         1427.60
2017-Jun-24 10:01:49 1016.000 29.3 37 13.0         1427.60
2017-Jun-24 11:01:45 1015.600 33.2 26 10.9         1427.60
2017-Jun-24 12:01:40 1015.300 35.2 23 10.7 0.4 WSW     1427.60
2017-Jun-24 13:01:47 1014.700 36.9 20 10.3         1427.60
2017-Jun-24 14:01:58 1014.200 37.4 20 10.7 2.7 SE     1427.60
2017-Jun-24 15:01:37 1013.600 36.6 20 10.1         1427.60
2017-Jun-24 16:01:51 1013.000 39.1 19 11.1         1427.60
2017-Jun-24 17:01:40 1012.400 36.6 20 10.1         1427.60
2017-Jun-24 18:02:04 1012.200 31.6 26 9.5         1427.60
2017-Jun-24 19:01:34 1012.200 28.3 33 10.4         1427.60
2017-Jun-24 20:01:42 1012.400 26.8 35 10.0         1427.60
2017-Jun-24 21:01:48 1012.600 28.2 29 8.4         1427.60
2017-Jun-24 22:01:57 1012.800 27.0 30 8.0         1427.60
2017-Jun-24 23:02:00 1013.300 23.3 38 8.1         1427.60

Temperatura Máxima:39°    Temperatura Mínima:14°
Presión Máxima:1017.000 Hpa    Presión Mínima:1012.200 Hpa


Volver